createdAt,value
2023-04-12T00:00:03.499Z,31.86
2023-04-12T00:01:03.476Z,31.03
2023-04-12T00:02:03.487Z,26.84
2023-04-12T00:03:03.569Z,29.31
2023-04-12T00:04:03.729Z,29.73
2023-04-12T00:05:03.452Z,27.16
2023-04-12T00:06:03.596Z,28.65
2023-04-12T00:07:03.424Z,26.97
2023-04-12T00:08:03.419Z,27.51
2023-04-12T00:09:03.413Z,29.18
2023-04-12T00:10:03.406Z,29.26
2023-04-12T00:11:03.480Z,31.14
2023-04-12T00:12:03.402Z,32.28
2023-04-12T00:13:03.384Z,26.73
2023-04-12T00:14:03.380Z,28.02
2023-04-12T00:15:03.381Z,25.19
2023-04-12T00:16:03.363Z,29.23
2023-04-12T00:17:03.346Z,30.62
2023-04-12T00:18:03.389Z,26.71
2023-04-12T00:19:03.321Z,27.96
2023-04-12T00:20:03.332Z,28.02
2023-04-12T00:21:03.319Z,30.13
2023-04-12T00:22:03.348Z,30.54
2023-04-12T00:23:03.300Z,30.17
2023-04-12T00:24:03.351Z,25.77
2023-04-12T00:25:03.313Z,27.20
2023-04-12T00:26:03.317Z,27.95
2023-04-12T00:27:03.280Z,30.40
2023-04-12T00:28:03.291Z,26.03
2023-04-12T00:29:03.272Z,27.36
2023-04-12T00:30:03.238Z,27.54
2023-04-12T00:31:03.310Z,27.26
2023-04-12T00:32:03.250Z,28.76
2023-04-12T00:33:03.286Z,28.21
2023-04-12T00:34:03.354Z,29.12
2023-04-12T00:35:03.327Z,29.05
2023-04-12T00:36:03.382Z,26.53
2023-04-12T00:37:03.381Z,24.65
2023-04-12T00:38:03.373Z,29.48
2023-04-12T00:39:03.402Z,29.21
2023-04-12T00:40:03.520Z,25.85
2023-04-12T00:41:03.445Z,25.21
2023-04-12T00:42:03.458Z,27.89
2023-04-12T00:43:03.501Z,29.31
2023-04-12T00:44:03.495Z,30.23
2023-04-12T00:45:03.519Z,31.01
2023-04-12T00:46:03.589Z,29.90
2023-04-12T00:47:03.591Z,27.36
2023-04-12T00:48:03.642Z,30.35
2023-04-12T00:49:03.689Z,28.34
2023-04-12T00:50:03.655Z,30.18
2023-04-12T00:51:03.656Z,31.00
2023-04-12T00:52:03.677Z,28.79
2023-04-12T00:53:03.689Z,27.53
2023-04-12T00:54:03.708Z,29.14
2023-04-12T00:55:03.742Z,31.20
2023-04-12T00:56:03.741Z,30.68
2023-04-12T00:57:03.746Z,32.54
2023-04-12T00:58:03.790Z,29.26
2023-04-12T00:59:03.777Z,27.70
2023-04-12T01:00:03.800Z,27.04
2023-04-12T01:01:03.917Z,26.34
2023-04-12T01:02:03.881Z,33.12
2023-04-12T01:03:03.956Z,30.29
2023-04-12T01:04:03.897Z,30.45
2023-04-12T01:05:03.881Z,32.69
2023-04-12T01:06:03.897Z,31.20
2023-04-12T01:07:03.884Z,32.36
2023-04-12T01:08:03.909Z,29.69
2023-04-12T01:09:03.915Z,33.14
2023-04-12T01:10:03.955Z,27.71
2023-04-12T01:11:03.984Z,30.05
2023-04-12T01:12:03.982Z,31.11
2023-04-12T01:13:03.980Z,32.06
2023-04-12T01:14:04.008Z,30.26
2023-04-12T01:15:04.059Z,28.08
2023-04-12T01:16:04.090Z,27.72
2023-04-12T01:17:04.068Z,34.16
2023-04-12T01:18:04.100Z,31.15
2023-04-12T01:19:04.132Z,36.56
2023-04-12T01:20:05.214Z,32.29
2023-04-12T01:21:04.174Z,32.78
2023-04-12T01:22:04.150Z,31.48
2023-04-12T01:23:04.211Z,28.36
2023-04-12T01:24:04.236Z,30.71
2023-04-12T01:25:04.227Z,32.38
2023-04-12T01:26:04.269Z,31.65
2023-04-12T01:27:04.281Z,32.68
2023-04-12T01:28:04.297Z,31.25
2023-04-12T01:29:04.334Z,33.51
2023-04-12T01:30:04.326Z,31.88
2023-04-12T01:31:04.367Z,31.47
2023-04-12T01:32:04.395Z,30.33
2023-04-12T01:33:04.460Z,27.67
2023-04-12T01:34:04.415Z,27.31
2023-04-12T01:35:04.460Z,30.50
2023-04-12T01:36:05.662Z,29.18
2023-04-12T01:37:04.537Z,30.46
2023-04-12T01:38:04.571Z,28.03
2023-04-12T01:39:04.671Z,31.40
2023-04-12T01:40:04.575Z,32.98
2023-04-12T01:41:04.637Z,32.55
2023-04-12T01:42:04.651Z,31.03
2023-04-12T01:43:04.662Z,32.57
2023-04-12T01:44:04.694Z,33.23
2023-04-12T01:45:04.729Z,32.08
2023-04-12T01:46:04.730Z,31.64
2023-04-12T01:47:04.762Z,29.37
2023-04-12T01:48:04.777Z,29.49
2023-04-12T01:49:04.864Z,26.76
2023-04-12T01:50:04.845Z,30.71
2023-04-12T01:51:04.893Z,30.76
2023-04-12T01:52:04.900Z,28.32
2023-04-12T01:53:04.894Z,29.53
2023-04-12T01:54:04.891Z,27.58
2023-04-12T01:55:04.905Z,28.95
2023-04-12T01:56:04.936Z,27.96
2023-04-12T01:57:04.984Z,25.79
2023-04-12T01:58:04.965Z,28.89
2023-04-12T01:59:04.997Z,26.82
2023-04-12T02:00:05.020Z,28.36
2023-04-12T02:01:05.087Z,29.60
2023-04-12T02:02:05.127Z,32.23
2023-04-12T02:03:05.216Z,31.40
2023-04-12T02:04:05.278Z,31.77
2023-04-12T02:05:05.153Z,31.13
2023-04-12T02:06:05.193Z,31.88
2023-04-12T02:07:05.179Z,29.53
2023-04-12T02:08:05.222Z,30.54
2023-04-12T02:09:05.233Z,30.84
2023-04-12T02:10:05.278Z,34.08
2023-04-12T02:11:05.299Z,31.30
2023-04-12T02:12:05.345Z,31.76
2023-04-12T02:13:05.351Z,31.47
2023-04-12T02:14:05.387Z,30.35
2023-04-12T02:15:05.416Z,29.87
2023-04-12T02:16:05.448Z,33.55
2023-04-12T02:17:05.521Z,30.74
2023-04-12T02:18:05.552Z,33.38
2023-04-12T02:19:05.540Z,33.44
2023-04-12T02:20:05.550Z,33.17
2023-04-12T02:21:05.600Z,30.42
2023-04-12T02:22:05.624Z,31.42
2023-04-12T02:23:05.651Z,35.76
2023-04-12T02:24:05.685Z,31.22
2023-04-12T02:25:05.731Z,32.00
2023-04-12T02:26:05.743Z,34.24
2023-04-12T02:27:05.783Z,33.73
2023-04-12T02:28:05.794Z,36.69
2023-04-12T02:29:05.816Z,32.56
2023-04-12T02:30:05.858Z,34.76
2023-04-12T02:31:05.955Z,35.27
2023-04-12T02:32:05.882Z,34.72
2023-04-12T02:33:05.946Z,36.03
2023-04-12T02:34:05.988Z,35.83
2023-04-12T02:35:05.996Z,36.28
2023-04-12T02:36:06.015Z,38.00
2023-04-12T02:37:06.051Z,36.82
2023-04-12T02:38:06.057Z,36.45
2023-04-12T02:39:06.089Z,33.56
2023-04-12T02:40:06.124Z,35.89
2023-04-12T02:41:06.158Z,35.45
2023-04-12T02:42:06.180Z,34.94
2023-04-12T02:43:06.211Z,33.08
2023-04-12T02:44:06.274Z,33.63
2023-04-12T02:45:06.275Z,35.87
2023-04-12T02:46:06.286Z,26.95
2023-04-12T02:47:06.305Z,33.40
2023-04-12T02:48:06.372Z,31.68
2023-04-12T02:49:06.364Z,29.93
2023-04-12T02:50:06.410Z,29.44
2023-04-12T02:51:06.422Z,31.58
2023-04-12T02:52:06.457Z,31.76
2023-04-12T02:53:06.468Z,32.28
2023-04-12T02:54:06.530Z,27.18
2023-04-12T02:55:06.538Z,24.21
2023-04-12T02:56:06.759Z,29.46
2023-04-12T02:57:06.601Z,26.98
2023-04-12T02:58:06.612Z,30.22
2023-04-12T02:59:06.658Z,30.12
2023-04-12T03:00:06.704Z,26.70
2023-04-12T03:01:06.746Z,29.51
2023-04-12T03:02:06.836Z,31.57
2023-04-12T03:03:06.982Z,30.29
2023-04-12T03:04:06.923Z,29.60
2023-04-12T03:05:06.824Z,28.75
2023-04-12T03:06:06.819Z,33.74
2023-04-12T03:07:06.880Z,30.49
2023-04-12T03:08:06.902Z,27.54
2023-04-12T03:09:06.915Z,33.04
2023-04-12T03:10:06.976Z,30.33
2023-04-12T03:11:06.997Z,31.08
2023-04-12T03:12:07.033Z,30.22
2023-04-12T03:13:07.041Z,33.10
2023-04-12T03:14:07.053Z,30.32
2023-04-12T03:15:07.107Z,32.91
2023-04-12T03:16:07.149Z,32.10
2023-04-12T03:17:07.182Z,33.58
2023-04-12T03:18:07.239Z,33.47
2023-04-12T03:19:07.187Z,32.24
2023-04-12T03:20:07.258Z,34.92
2023-04-12T03:21:07.259Z,32.73
2023-04-12T03:22:07.264Z,35.42
2023-04-12T03:23:07.316Z,35.49
2023-04-12T03:24:07.349Z,35.63
2023-04-12T03:25:07.410Z,37.24
2023-04-12T03:26:07.444Z,35.12
2023-04-12T03:27:07.413Z,34.61
2023-04-12T03:28:07.485Z,33.71
2023-04-12T03:29:08.867Z,34.94
2023-04-12T03:30:07.529Z,35.86
2023-04-12T03:31:07.601Z,35.80
2023-04-12T03:32:07.549Z,37.54
2023-04-12T03:33:07.672Z,35.21
2023-04-12T03:34:07.619Z,32.98
2023-04-12T03:35:07.628Z,37.01
2023-04-12T03:36:07.697Z,37.77
2023-04-12T03:37:07.743Z,33.92
2023-04-12T03:38:07.725Z,35.85
2023-04-12T03:39:07.753Z,36.46
2023-04-12T03:40:07.769Z,38.85
2023-04-12T03:41:07.839Z,34.89
2023-04-12T03:42:11.595Z,38.48
2023-04-12T03:43:08.838Z,38.60
2023-04-12T03:44:07.839Z,37.33
2023-04-12T03:45:07.805Z,39.16
2023-04-12T03:46:07.841Z,37.80
2023-04-12T03:47:07.785Z,38.07
2023-04-12T03:48:07.896Z,39.71
2023-04-12T03:49:07.803Z,40.58
2023-04-12T03:50:11.367Z,37.55
2023-04-12T03:51:07.843Z,37.75
2023-04-12T03:52:07.765Z,38.10
2023-04-12T03:53:07.760Z,39.18
2023-04-12T03:54:07.761Z,39.28
2023-04-12T03:55:08.235Z,38.17
2023-04-12T03:56:07.735Z,40.00
2023-04-12T03:57:07.754Z,38.89
2023-04-12T03:58:07.729Z,38.71
2023-04-12T03:59:07.767Z,39.27
2023-04-12T04:00:07.734Z,37.62
2023-04-12T04:01:07.700Z,36.29
2023-04-12T04:02:07.763Z,37.81
2023-04-12T04:03:07.750Z,38.57
2023-04-12T04:04:07.936Z,37.22
2023-04-12T04:05:07.704Z,39.01
2023-04-12T04:06:07.664Z,37.95
2023-04-12T04:07:07.670Z,37.85
2023-04-12T04:08:07.665Z,41.25
2023-04-12T04:09:07.657Z,42.02
2023-04-12T04:10:07.668Z,35.18
2023-04-12T04:11:09.036Z,40.74
2023-04-12T04:12:07.637Z,41.29
2023-04-12T04:13:07.622Z,39.73
2023-04-12T04:14:07.621Z,40.61
2023-04-12T04:15:07.594Z,37.43
2023-04-12T04:16:07.603Z,39.08
2023-04-12T04:17:07.590Z,38.81
2023-04-12T04:18:07.577Z,38.06
2023-04-12T04:19:07.589Z,40.77
2023-04-12T04:20:07.624Z,41.89
2023-04-12T04:21:07.673Z,35.18
2023-04-12T04:22:07.693Z,40.20
2023-04-12T04:23:07.726Z,39.17
2023-04-12T04:24:07.765Z,41.78
2023-04-12T04:25:07.758Z,41.88
2023-04-12T04:26:07.804Z,42.01
2023-04-12T04:27:07.809Z,42.88
2023-04-12T04:28:07.866Z,42.50
2023-04-12T04:29:07.858Z,40.19
2023-04-12T04:30:07.884Z,38.80
2023-04-12T04:31:07.918Z,42.14
2023-04-12T04:32:07.986Z,40.34
2023-04-12T04:33:07.990Z,40.25
2023-04-12T04:34:07.998Z,42.56
2023-04-12T04:35:08.018Z,42.36
2023-04-12T04:36:08.048Z,41.85
2023-04-12T04:37:08.069Z,40.30
2023-04-12T04:38:08.073Z,42.99
2023-04-12T04:39:08.127Z,42.89
2023-04-12T04:40:08.113Z,41.81
2023-04-12T04:41:08.174Z,42.63
2023-04-12T04:42:08.226Z,41.24
2023-04-12T04:43:08.412Z,40.12
2023-04-12T04:44:08.256Z,42.02
2023-04-12T04:45:08.301Z,39.74
2023-04-12T04:46:08.386Z,41.14
2023-04-12T04:47:08.348Z,44.64
2023-04-12T04:48:08.393Z,42.71
2023-04-12T04:49:08.448Z,43.82
2023-04-12T04:50:08.434Z,41.94
2023-04-12T04:51:08.468Z,41.79
2023-04-12T04:52:08.507Z,40.47
2023-04-12T04:53:08.522Z,41.71
2023-04-12T04:54:08.542Z,40.42
2023-04-12T04:55:10.631Z,39.48
2023-04-12T04:56:08.545Z,44.19
2023-04-12T04:57:08.573Z,45.36
2023-04-12T04:58:08.535Z,43.88
2023-04-12T04:59:08.554Z,41.41
2023-04-12T05:00:08.565Z,46.27
2023-04-12T05:01:08.605Z,48.59
2023-04-12T05:02:08.588Z,47.22
2023-04-12T05:03:08.537Z,45.68
2023-04-12T05:04:08.671Z,47.51
2023-04-12T05:05:08.504Z,45.65
2023-04-12T05:06:08.492Z,47.38
2023-04-12T05:07:08.585Z,44.48
2023-04-12T05:08:08.508Z,45.66
2023-04-12T05:09:08.453Z,45.11
2023-04-12T05:10:08.475Z,46.08
2023-04-12T05:11:08.456Z,46.12
2023-04-12T05:12:08.480Z,46.49
2023-04-12T05:13:08.433Z,48.12
2023-04-12T05:14:09.369Z,45.65
2023-04-12T05:15:12.009Z,45.77
2023-04-12T05:16:08.426Z,45.71
2023-04-12T05:17:08.433Z,45.98
2023-04-12T05:18:08.439Z,46.72
2023-04-12T05:19:08.432Z,46.74
2023-04-12T05:20:08.488Z,44.90
2023-04-12T05:21:08.421Z,46.68
2023-04-12T05:22:08.378Z,46.78
2023-04-12T05:23:08.391Z,46.21
2023-04-12T05:24:08.393Z,47.78
2023-04-12T05:25:08.392Z,46.38
2023-04-12T05:26:09.212Z,46.12
2023-04-12T05:27:08.357Z,46.62
2023-04-12T05:28:08.337Z,46.41
2023-04-12T05:29:08.323Z,43.74
2023-04-12T05:30:08.327Z,48.70
2023-04-12T05:31:08.463Z,44.20
2023-04-12T05:32:08.342Z,48.28
2023-04-12T05:33:08.315Z,48.56
2023-04-12T05:34:08.339Z,47.82
2023-04-12T05:35:08.323Z,46.73
2023-04-12T05:36:08.344Z,49.77
2023-04-12T05:37:08.735Z,49.12
2023-04-12T05:38:08.292Z,50.99
2023-04-12T05:39:08.305Z,51.26
2023-04-12T05:40:08.300Z,54.36
2023-04-12T05:41:08.261Z,54.92
2023-04-12T05:42:08.753Z,62.18
2023-04-12T05:43:08.261Z,71.77
2023-04-12T05:44:08.234Z,69.63
2023-04-12T05:45:08.253Z,71.37
2023-04-12T05:46:08.278Z,73.97
2023-04-12T05:47:08.248Z,78.63
2023-04-12T05:48:08.338Z,84.21
2023-04-12T05:49:08.192Z,90.64
2023-04-12T05:50:08.190Z,89.05
2023-04-12T05:51:08.169Z,84.81
2023-04-12T05:52:08.237Z,84.16
2023-04-12T05:53:08.156Z,77.89
2023-04-12T05:54:08.761Z,54.28
2023-04-12T05:55:08.151Z,42.40
2023-04-12T05:56:08.141Z,57.02
2023-04-12T05:57:08.241Z,78.71
2023-04-12T05:58:08.172Z,84.71
2023-04-12T05:59:08.161Z,93.69
2023-04-12T06:00:08.156Z,105.16
2023-04-12T06:01:08.114Z,113.24
2023-04-12T06:02:08.231Z,120.67
2023-04-12T06:03:08.203Z,134.70
2023-04-12T06:04:08.266Z,136.58
2023-04-12T06:05:08.228Z,148.20
2023-04-12T06:06:08.143Z,151.83
2023-04-12T06:07:08.100Z,167.16
2023-04-12T06:08:08.154Z,173.58
2023-04-12T06:09:08.193Z,177.73
2023-04-12T06:10:08.233Z,181.43
2023-04-12T06:11:08.308Z,189.87
2023-04-12T06:12:08.404Z,193.35
2023-04-12T06:13:08.432Z,201.28
2023-04-12T06:14:10.007Z,207.87
2023-04-12T06:15:08.477Z,214.28
2023-04-12T06:16:08.478Z,219.11
2023-04-12T06:17:08.493Z,224.87
2023-04-12T06:18:08.496Z,228.50
2023-04-12T06:19:08.473Z,234.17
2023-04-12T06:20:08.456Z,238.77
2023-04-12T06:21:08.449Z,243.81
2023-04-12T06:22:08.462Z,248.53
2023-04-12T06:23:08.448Z,248.93
2023-04-12T06:24:08.419Z,248.70
2023-04-12T06:25:08.426Z,250.00
2023-04-12T06:26:08.407Z,247.70
2023-04-12T06:27:08.399Z,248.32
2023-04-12T06:28:08.445Z,248.78
2023-04-12T06:29:08.423Z,249.17
2023-04-12T06:30:08.379Z,250.00
2023-04-12T06:31:08.417Z,248.72
2023-04-12T06:32:08.358Z,246.96
2023-04-12T06:33:08.369Z,250.00
2023-04-12T06:34:08.356Z,249.76
2023-04-12T06:35:08.366Z,249.69
2023-04-12T06:36:08.359Z,247.66
2023-04-12T06:37:08.751Z,250.00
2023-04-12T06:38:08.333Z,249.47
2023-04-12T06:39:08.316Z,248.30
2023-04-12T06:40:08.319Z,247.78
2023-04-12T06:41:08.330Z,250.10
2023-04-12T06:42:08.308Z,247.80
2023-04-12T06:43:08.363Z,250.00
2023-04-12T06:44:08.307Z,249.75
2023-04-12T06:45:08.257Z,248.05
2023-04-12T06:46:08.252Z,247.04
2023-04-12T06:47:08.902Z,248.29
2023-04-12T06:48:08.335Z,249.56
2023-04-12T06:49:08.242Z,249.00
2023-04-12T06:50:08.215Z,248.77
2023-04-12T06:51:08.228Z,250.00
2023-04-12T06:52:08.252Z,248.16
2023-04-12T06:53:08.246Z,249.77
2023-04-12T06:54:08.253Z,250.00
2023-04-12T06:55:08.228Z,249.86
2023-04-12T06:56:08.237Z,248.68
2023-04-12T06:57:08.325Z,249.59
2023-04-12T06:58:08.753Z,250.00
2023-04-12T06:59:08.185Z,250.00
2023-04-12T07:00:08.162Z,249.87
2023-04-12T07:01:08.289Z,249.49
2023-04-12T07:02:08.214Z,249.35
2023-04-12T07:03:08.218Z,248.97
2023-04-12T07:04:08.169Z,249.50
2023-04-12T07:05:08.148Z,249.58
2023-04-12T07:06:21.794Z,248.07
2023-04-12T07:07:09.162Z,248.41
2023-04-12T07:08:08.128Z,249.21
2023-04-12T07:09:08.137Z,251.02
2023-04-12T07:10:08.096Z,254.71
2023-04-12T07:11:20.121Z,261.75
2023-04-12T07:12:09.125Z,248.72
2023-04-12T07:13:08.096Z,250.95
2023-04-12T07:14:08.078Z,255.85
2023-04-12T07:15:08.075Z,261.90
2023-04-12T07:16:08.263Z,269.70
2023-04-12T07:17:08.104Z,256.03
2023-04-12T07:18:08.098Z,249.07
2023-04-12T07:19:08.086Z,250.00
2023-04-12T07:20:08.099Z,248.29
2023-04-12T07:21:08.136Z,249.49
2023-04-12T07:22:08.209Z,249.82
2023-04-12T07:23:08.231Z,249.63
2023-04-12T07:24:08.298Z,249.35
2023-04-12T07:25:08.329Z,249.65
2023-04-12T07:26:08.375Z,249.83
2023-04-12T07:27:08.381Z,248.72
2023-04-12T07:28:09.226Z,250.00
2023-04-12T07:29:08.453Z,249.30
2023-04-12T07:30:08.553Z,249.64
2023-04-12T07:31:08.580Z,247.24
2023-04-12T07:32:08.598Z,249.73
2023-04-12T07:33:18.875Z,249.55
2023-04-12T07:34:09.791Z,249.77
2023-04-12T07:35:08.661Z,250.77
2023-04-12T07:36:08.774Z,251.68
2023-04-12T07:37:08.637Z,255.68
2023-04-12T07:38:08.641Z,258.61
2023-04-12T07:39:08.588Z,250.08
2023-04-12T07:40:08.588Z,247.70
2023-04-12T07:41:08.587Z,244.70
2023-04-12T07:42:08.772Z,245.55
2023-04-12T07:43:08.573Z,244.57
2023-04-12T07:44:08.580Z,243.42
2023-04-12T07:45:08.594Z,244.15
2023-04-12T07:46:08.856Z,244.17
2023-04-12T07:47:08.788Z,246.81
2023-04-12T07:48:08.675Z,249.02
2023-04-12T07:49:08.585Z,249.28
2023-04-12T07:50:08.701Z,250.00
2023-04-12T07:51:08.660Z,250.00
2023-04-12T07:52:08.661Z,250.00
2023-04-12T07:53:08.758Z,249.86
2023-04-12T07:54:08.729Z,249.44
2023-04-12T07:55:08.762Z,249.37
2023-04-12T07:56:08.787Z,249.74
2023-04-12T07:57:08.821Z,249.93
2023-04-12T07:58:08.832Z,249.63
2023-04-12T07:59:08.834Z,249.89
2023-04-12T08:00:08.869Z,249.58
2023-04-12T08:01:08.904Z,249.76
2023-04-12T08:02:09.481Z,249.32
2023-04-12T08:03:09.101Z,250.02
2023-04-12T08:04:09.084Z,250.00
2023-04-12T08:05:08.982Z,249.62
2023-04-12T08:06:09.158Z,249.66
2023-04-12T08:07:09.018Z,249.16
2023-04-12T08:08:09.030Z,248.94
2023-04-12T08:09:09.053Z,249.48
2023-04-12T08:10:09.060Z,249.15
2023-04-12T08:11:09.115Z,249.06
2023-04-12T08:12:09.126Z,248.30
2023-04-12T08:13:09.118Z,249.16
2023-04-12T08:14:09.156Z,246.98
2023-04-12T08:15:09.133Z,248.25
2023-04-12T08:16:09.225Z,249.02
2023-04-12T08:17:09.174Z,249.89
2023-04-12T08:18:09.212Z,248.67
2023-04-12T08:19:09.161Z,248.55
2023-04-12T08:20:09.201Z,249.28
2023-04-12T08:21:09.197Z,249.69
2023-04-12T08:22:09.845Z,249.11
2023-04-12T08:23:09.239Z,249.43
2023-04-12T08:24:09.432Z,249.40
2023-04-12T08:25:09.282Z,248.85
2023-04-12T08:26:09.313Z,248.14
2023-04-12T08:27:09.236Z,248.83
2023-04-12T08:28:09.240Z,248.14
2023-04-12T08:29:09.294Z,248.75
2023-04-12T08:30:09.289Z,247.14
2023-04-12T08:31:09.327Z,247.33
2023-04-12T08:32:09.321Z,247.53
2023-04-12T08:33:09.313Z,248.95
2023-04-12T08:34:09.343Z,249.12
2023-04-12T08:35:09.329Z,246.62
2023-04-12T08:36:09.393Z,245.24
2023-04-12T08:37:09.348Z,244.36
2023-04-12T08:38:09.791Z,243.04
2023-04-12T08:39:09.424Z,242.70
2023-04-12T08:40:09.586Z,240.18
2023-04-12T08:41:09.414Z,239.38
2023-04-12T08:42:09.448Z,239.94
2023-04-12T08:43:10.303Z,237.47
2023-04-12T08:44:09.506Z,236.09
2023-04-12T08:45:09.469Z,236.00
2023-04-12T08:46:09.543Z,235.00
2023-04-12T08:47:09.522Z,235.17
2023-04-12T08:48:09.496Z,234.31
2023-04-12T08:49:09.532Z,233.54
2023-04-12T08:50:09.693Z,232.52
2023-04-12T08:51:09.514Z,233.25
2023-04-12T08:52:09.552Z,233.38
2023-04-12T08:53:09.560Z,232.36
2023-04-12T08:54:09.564Z,228.74
2023-04-12T08:55:09.609Z,228.18
2023-04-12T08:56:09.637Z,229.22
2023-04-12T08:57:09.652Z,230.87
2023-04-12T08:58:09.798Z,232.29
2023-04-12T08:59:09.638Z,233.82
2023-04-12T09:00:09.643Z,234.91
2023-04-12T09:01:09.662Z,242.02
2023-04-12T09:02:09.772Z,241.26
2023-04-12T09:03:09.941Z,240.92
2023-04-12T09:04:09.750Z,242.01
2023-04-12T09:05:09.693Z,242.47
2023-04-12T09:06:09.689Z,241.00
2023-04-12T09:07:09.656Z,241.12
2023-04-12T09:08:09.652Z,242.52
2023-04-12T09:09:09.685Z,243.55
2023-04-12T09:10:09.675Z,243.25
2023-04-12T09:11:09.648Z,244.43
2023-04-12T09:12:09.664Z,245.01
2023-04-12T09:13:09.667Z,245.59
2023-04-12T09:14:09.651Z,246.69
2023-04-12T09:15:09.702Z,248.94
2023-04-12T09:16:09.699Z,248.24
2023-04-12T09:17:09.776Z,248.71
2023-04-12T09:18:09.766Z,248.98
2023-04-12T09:19:09.765Z,249.83
2023-04-12T09:20:09.792Z,249.34
2023-04-12T09:21:09.829Z,249.81
2023-04-12T09:22:09.916Z,250.00
2023-04-12T09:23:09.969Z,248.29
2023-04-12T09:24:13.375Z,249.67
2023-04-12T09:25:10.004Z,249.79
2023-04-12T09:26:10.025Z,249.89
2023-04-12T09:27:10.032Z,250.26
2023-04-12T09:28:10.021Z,250.95
2023-04-12T09:29:09.967Z,251.61
2023-04-12T09:30:09.985Z,248.83
2023-04-12T09:31:09.986Z,248.76
2023-04-12T09:32:09.949Z,249.15
2023-04-12T09:33:09.941Z,250.00
2023-04-12T09:34:09.957Z,248.64
2023-04-12T09:35:09.943Z,249.27
2023-04-12T09:36:09.944Z,249.70
2023-04-12T09:37:09.932Z,249.27
2023-04-12T09:38:10.308Z,249.48
2023-04-12T09:39:09.916Z,248.46
2023-04-12T09:40:09.946Z,249.28
2023-04-12T09:41:09.967Z,249.72
2023-04-12T09:42:21.380Z,248.17
2023-04-12T09:43:11.354Z,248.29
2023-04-12T09:44:10.020Z,248.59
2023-04-12T09:45:10.030Z,249.05
2023-04-12T09:46:10.033Z,249.04
2023-04-12T09:47:10.017Z,249.83
2023-04-12T09:48:10.451Z,249.96
2023-04-12T09:49:09.992Z,248.84
2023-04-12T09:50:10.234Z,247.44
2023-04-12T09:51:10.025Z,245.75
2023-04-12T09:52:11.885Z,243.96
2023-04-12T09:53:09.980Z,242.24
2023-04-12T09:54:10.050Z,241.08
2023-04-12T09:55:10.099Z,237.54
2023-04-12T09:56:10.131Z,236.00
2023-04-12T09:57:10.214Z,233.05
2023-04-12T09:58:10.259Z,234.26
2023-04-12T09:59:10.284Z,235.24
2023-04-12T10:00:10.408Z,234.08
2023-04-12T10:01:10.411Z,235.42
2023-04-12T10:02:10.502Z,236.40
2023-04-12T10:03:10.726Z,236.49
2023-04-12T10:04:17.774Z,238.56
2023-04-12T10:05:10.644Z,238.73
2023-04-12T10:06:10.521Z,238.91
2023-04-12T10:07:10.975Z,238.85
2023-04-12T10:08:10.523Z,240.16
2023-04-12T10:09:10.524Z,239.57
2023-04-12T10:10:10.484Z,241.43
2023-04-12T10:11:10.506Z,241.70
2023-04-12T10:12:10.469Z,242.58
2023-04-12T10:13:10.459Z,241.44
2023-04-12T10:14:10.467Z,241.85
2023-04-12T10:15:10.481Z,240.56
2023-04-12T10:16:10.505Z,242.27
2023-04-12T10:17:10.430Z,242.33
2023-04-12T10:18:10.518Z,242.11
2023-04-12T10:19:10.411Z,244.24
2023-04-12T10:20:10.401Z,243.24
2023-04-12T10:21:10.405Z,243.64
2023-04-12T10:22:10.403Z,242.97
2023-04-12T10:23:10.409Z,243.66
2023-04-12T10:24:10.431Z,244.12
2023-04-12T10:25:10.378Z,245.22
2023-04-12T10:26:10.400Z,245.05
2023-04-12T10:27:10.392Z,243.85
2023-04-12T10:28:10.353Z,245.69
2023-04-12T10:29:10.361Z,245.45
2023-04-12T10:30:10.379Z,245.12
2023-04-12T10:31:10.368Z,245.15
2023-04-12T10:32:10.579Z,246.00
2023-04-12T10:33:10.471Z,245.80
2023-04-12T10:34:10.407Z,244.55
2023-04-12T10:35:10.402Z,244.31
2023-04-12T10:36:10.438Z,244.92
2023-04-12T10:37:10.555Z,247.89
2023-04-12T10:38:10.872Z,247.42
2023-04-12T10:39:10.551Z,248.86
2023-04-12T10:40:10.591Z,246.82
2023-04-12T10:41:10.582Z,247.66
2023-04-12T10:42:10.576Z,243.22
2023-04-12T10:43:10.619Z,241.91
2023-04-12T10:44:10.634Z,233.10
2023-04-12T10:45:10.658Z,209.78
2023-04-12T10:46:10.740Z,206.71
2023-04-12T10:47:10.773Z,193.55
2023-04-12T10:48:10.976Z,200.03
2023-04-12T10:49:10.882Z,200.58
2023-04-12T10:50:10.929Z,198.33
2023-04-12T10:51:10.988Z,198.84
2023-04-12T10:52:11.039Z,198.65
2023-04-12T10:53:11.432Z,199.57
2023-04-12T10:54:11.078Z,201.43
2023-04-12T10:55:11.163Z,202.28
2023-04-12T10:56:11.163Z,205.03
2023-04-12T10:57:11.236Z,204.45
2023-04-12T10:58:11.311Z,200.91
2023-04-12T10:59:11.306Z,204.12
2023-04-12T11:00:11.331Z,207.54
2023-04-12T11:01:11.546Z,208.06
2023-04-12T11:02:11.578Z,208.95
2023-04-12T11:03:11.557Z,211.89
2023-04-12T11:04:11.790Z,211.69
2023-04-12T11:05:11.888Z,212.80
2023-04-12T11:06:26.538Z,214.42
2023-04-12T11:07:12.572Z,214.53
2023-04-12T11:08:11.573Z,214.75
2023-04-12T11:09:11.542Z,215.32
2023-04-12T11:10:11.573Z,215.32
2023-04-12T11:11:11.548Z,217.70
2023-04-12T11:12:11.540Z,216.02
2023-04-12T11:13:11.524Z,217.78
2023-04-12T11:14:11.546Z,216.32
2023-04-12T11:15:11.572Z,217.79
2023-04-12T11:16:11.576Z,216.62
2023-04-12T11:17:11.684Z,217.65
2023-04-12T11:18:11.540Z,217.69
2023-04-12T11:19:11.539Z,218.65
2023-04-12T11:20:11.511Z,219.15
2023-04-12T11:21:11.480Z,219.64
2023-04-12T11:22:11.466Z,222.98
2023-04-12T11:23:11.693Z,223.17
2023-04-12T11:24:11.513Z,224.43
2023-04-12T11:25:11.453Z,224.27
2023-04-12T11:26:11.452Z,225.86
2023-04-12T11:27:11.430Z,226.55
2023-04-12T11:28:27.382Z,227.13
2023-04-12T11:29:12.903Z,227.32
2023-04-12T11:30:11.434Z,227.73
2023-04-12T11:31:11.437Z,227.62
2023-04-12T11:32:11.515Z,226.24
2023-04-12T11:33:11.496Z,223.26
2023-04-12T11:34:13.242Z,218.62
2023-04-12T11:35:11.411Z,218.80
2023-04-12T11:36:11.371Z,216.74
2023-04-12T11:37:11.376Z,215.22
2023-04-12T11:38:11.366Z,214.38
2023-04-12T11:39:11.393Z,213.58
2023-04-12T11:40:11.478Z,208.08
2023-04-12T11:41:11.356Z,208.66
2023-04-12T11:42:11.350Z,208.10
2023-04-12T11:43:11.360Z,206.62
2023-04-12T11:44:11.321Z,204.76
2023-04-12T11:45:16.963Z,203.22
2023-04-12T11:46:12.368Z,203.34
2023-04-12T11:47:11.330Z,201.54
2023-04-12T11:49:11.307Z,199.08
2023-04-12T11:50:11.386Z,197.54
2023-04-12T11:51:11.767Z,195.09
2023-04-12T11:52:11.262Z,195.68
2023-04-12T11:53:11.302Z,195.74
2023-04-12T11:54:11.879Z,193.44
2023-04-12T11:55:11.434Z,192.22
2023-04-12T11:56:11.234Z,192.05
2023-04-12T11:57:11.258Z,192.88
2023-04-12T11:58:11.318Z,191.35
2023-04-12T11:59:11.400Z,189.20
2023-04-12T12:00:11.446Z,186.67
2023-04-12T12:01:11.473Z,184.45
2023-04-12T12:02:21.993Z,184.23
2023-04-12T12:03:12.725Z,184.33
2023-04-12T12:04:11.653Z,183.16
2023-04-12T12:05:11.810Z,183.84
2023-04-12T12:06:11.993Z,182.52
2023-04-12T12:07:11.602Z,182.18
2023-04-12T12:08:11.519Z,180.69
2023-04-12T12:09:11.508Z,179.79
2023-04-12T12:10:12.429Z,181.14
2023-04-12T12:11:12.382Z,180.73
2023-04-12T12:12:11.476Z,177.62
2023-04-12T12:13:11.487Z,177.40
2023-04-12T12:14:11.490Z,176.07
2023-04-12T12:15:11.468Z,174.58
2023-04-12T12:16:11.551Z,168.45
2023-04-12T12:17:11.450Z,171.29
2023-04-12T12:18:11.448Z,169.99
2023-04-12T12:19:11.439Z,165.91
2023-04-12T12:20:11.453Z,165.66
2023-04-12T12:21:11.429Z,165.93
2023-04-12T12:22:11.415Z,154.11
2023-04-12T12:23:11.404Z,155.10
2023-04-12T12:24:11.404Z,153.09
2023-04-12T12:25:11.379Z,154.47
2023-04-12T12:26:19.131Z,156.33
2023-04-12T12:27:12.375Z,156.48
2023-04-12T12:28:11.595Z,156.82
2023-04-12T12:29:11.359Z,155.79
2023-04-12T12:30:11.379Z,155.94
2023-04-12T12:31:11.394Z,155.63
2023-04-12T12:32:11.327Z,154.48
2023-04-12T12:33:11.364Z,152.66
2023-04-12T12:34:11.575Z,151.10
2023-04-12T12:35:11.377Z,152.44
2023-04-12T12:36:11.405Z,151.35
2023-04-12T12:37:11.461Z,147.46
2023-04-12T12:38:11.517Z,148.19
2023-04-12T12:39:12.168Z,146.85
2023-04-12T12:40:11.643Z,146.47